Explorer Of The Seas — C6SE4 — position and weather

sailwx.info

Track history (hours):
 
Tides and Currents Weather Stations Pressure Air Temp Water Temp Dewpoint Dewpoint Depression Visibility Wind Speed Wind Dir Waves Ship Positions

Explorer Of The Seas

Operator: Royal Caribbean Cruises Ltd

Last reported at 2015-Jul-07 12:32 UTC. Time now 2015-Jul-07 13:07 UTC.
Position N 39°33' E 002°38'.

Length 311 m; draft 9 m.

Type: Ship. MMSI: 311316000.

Date/timePositionNaut miles runAvg speedWind from/ knotsBaromVisibWave heightAir tempDewpointWater temp
2015-Jul-07 12:32N 39°33' E 002°38'0 0.0
2015-Jul-07 11:32N 39°33' E 002°38'0 0.0
2015-Jul-07 10:33N 39°33' E 002°38'8 7.7
2015-Jul-07 09:33N 39°26' E 002°33'1313.1
2015-Jul-07 08:33N 39°31' E 002°17'1313.1
2015-Jul-07 07:33N 39°44' E 002°22'1514.6
2015-Jul-07 06:33N 39°55' E 002°35'1514.7
2015-Jul-07 05:33N 40°06' E 002°48'1514.6
2015-Jul-07 04:33N 40°17' E 002°59'1514.8
2015-Jul-07 03:33N 40°29' E 003°12'1514.9
2015-Jul-07 02:33N 40°40' E 003°24'1514.7
2015-Jul-07 01:33N 40°53' E 003°34'1514.9
2015-Jul-07 00:33N 41°05' E 003°46'1716.8
2015-Jul-06 23:31N 41°18' E 004°01'1717.3
2015-Jul-06 22:32N 41°31' E 004°15'1717.3
2015-Jul-06 21:33N 41°45' E 004°28'1717.5
2015-Jul-06 20:33N 41°59' E 004°43'1817.6
2015-Jul-06 19:33N 42°13' E 004°58'1717.6
2015-Jul-06 18:33N 42°26' E 005°12'1817.7
2015-Jul-06 17:33N 42°41' E 005°27'1817.6
2015-Jul-06 16:34N 42°52' E 005°45'1615.8
2015-Jul-06 15:33N 43°05' E 005°57'3 2.9
2015-Jul-06 14:33N 43°06' E 005°54'0 0.0
2015-Jul-06 13:33N 43°06' E 005°54'0 0.0
2015-Jul-06 12:33N 43°06' E 005°54'0 0.0
2015-Jul-06 11:33N 43°06' E 005°54'0 0.0
2015-Jul-06 10:33N 43°06' E 005°54'0 0.0
2015-Jul-06 09:33N 43°06' E 005°54'0 0.0
2015-Jul-06 08:33N 43°06' E 005°54'0 0.0
2015-Jul-06 07:33N 43°06' E 005°54'0 0.0
2015-Jul-06 06:33N 43°06' E 005°54'0 0.0
2015-Jul-06 05:33N 43°06' E 005°54'0 0.1
2015-Jul-06 04:33N 43°06' E 005°54'12 8.2
2015-Jul-06 03:07N 42°59' E 006°06'5 9.5
2015-Jul-06 02:33N 42°56' E 006°13'1310.2
2015-Jul-06 01:19N 42°56' E 006°30'910.2
2015-Jul-06 00:26N 42°56' E 006°42'9 9.3
2015-Jul-05 23:27N 42°60' E 006°53'9 9.7
2015-Jul-05 22:33N 43°06' E 007°02'9 9.5
2015-Jul-05 21:33N 43°12' E 007°11'10 9.4
2015-Jul-05 20:27N 43°21' E 007°20'8 8.9
2015-Jul-05 19:33N 43°29' E 007°21'9 9.5
2015-Jul-05 18:33N 43°38' E 007°19'3 2.8
2015-Jul-05 17:22N 43°41' E 007°19'0 0.0
2015-Jul-05 16:31N 43°41' E 007°19'0 0.0
2015-Jul-05 15:31N 43°41' E 007°19'0 0.0
2015-Jul-05 14:28N 43°41' E 007°19'0 0.0
2015-Jul-05 13:31N 43°41' E 007°19'0 0.0
2015-Jul-05 12:28N 43°41' E 007°19'0 0.0
2015-Jul-05 11:31N 43°41' E 007°19'0 0.0
2015-Jul-05 10:25N 43°41' E 007°19'0 0.0
2015-Jul-05 09:28N 43°41' E 007°19'0 0.0
2015-Jul-05 07:25N 43°41' E 007°19'0 0.0
2015-Jul-05 06:33N 43°41' E 007°19'10 9.9
2015-Jul-05 05:33N 43°32' E 007°16'1818.2
2015-Jul-05 04:32N 43°14' E 007°08'1818.3
2015-Jul-05 03:33N 42°60' E 006°54'1818.0
2015-Jul-05 02:33N 42°47' E 006°36'1818.2
2015-Jul-05 01:33N 42°35' E 006°18'1818.3
2015-Jul-05 00:33N 42°23' E 005°59'1818.3
2015-Jul-04 23:34N 42°11' E 005°41'1818.2
2015-Jul-04 22:33N 41°59' E 005°22'1818.3
2015-Jul-04 21:33N 41°47' E 005°04'1818.2
2015-Jul-04 20:33N 41°35' E 004°45'1818.1
2015-Jul-04 19:33N 41°23' E 004°28'2018.2
2015-Jul-04 18:28N 41°09' E 004°08'1718.2
2015-Jul-04 17:33N 40°58' E 003°51'1918.4
2015-Jul-04 16:32N 40°46' E 003°32'1919.4
2015-Jul-04 15:33N 40°34' E 003°14'1919.4
2015-Jul-04 14:33N 40°21' E 002°55'1919.3
2015-Jul-04 13:33N 40°08' E 002°36'1919.2
2015-Jul-04 12:33N 39°55' E 002°18'3819.0
2015-Jul-04 10:33N 39°30' E 001°40'2118.7
2015-Jul-04 09:27N 39°16' E 001°21'1819.0
2015-Jul-04 08:30N 39°01' E 001°07'2418.8
2015-Jul-04 07:13N 38°43' E 000°47'1419.0
2015-Jul-04 06:28N 38°31' E 000°36'1718.3
2015-Jul-04 05:33N 38°18' E 000°23'1818.5
2015-Jul-04 04:34N 38°03' E 000°10'1918.6
2015-Jul-04 03:33N 37°48' W 000°04'1918.5
2015-Jul-04 02:33N 37°33' W 000°19'1818.3
2015-Jul-04 01:33N 37°22' W 000°36'1918.4
2015-Jul-04 00:33N 37°10' W 000°55'1818.4
2015-Jul-03 23:33N 36°59' W 001°13'1918.5
2015-Jul-03 22:30N 36°46' W 001°31'1918.4
2015-Jul-03 21:30N 36°35' W 001°49'1818.6
2015-Jul-03 20:31N 36°23' W 002°07'1818.2
2015-Jul-03 19:33N 36°23' W 002°29'2018.8
2015-Jul-03 18:31N 36°26' W 002°53'120 5.0
2015-Jul-02 18:33N 36°05' W 005°20'5 3.1
2015-Jul-02 17:04N 36°09' W 005°22'0 0.0
2015-Jul-02 16:28N 36°09' W 005°22'5 0.8
2015-Jul-02 10:07N 36°04' W 005°22'10317.1
2015-Jul-02 04:07N 36°08' W 007°30'1318.8
2015-Jul-02 03:26N 36°11' W 007°45'3818.6
2015-Jul-02 01:23N 36°22' W 008°31'1618.7
2015-Jul-02 00:32N 36°27' W 008°49'2319.0
2015-Jul-01 23:18N 36°33' W 009°17'1919.0
2015-Jul-01 22:19N 36°46' W 009°34'1519.2
2015-Jul-01 21:33N 37°00' W 009°38'1919.1
2015-Jul-01 20:33N 37°19' W 009°43'1919.2
2015-Jul-01 19:33N 37°38' W 009°49'1919.2
2015-Jul-01 18:33N 37°56' W 009°54'1919.2
2015-Jul-01 17:33N 38°15' W 009°59'1918.9
2015-Jul-01 16:33N 38°34' W 010°04'1918.9
2015-Jul-01 15:33N 38°53' W 010°05'1919.0
2015-Jul-01 14:33N 39°12' W 010°05'70718.0
2015-Jun-29 23:15N 49°54' W 003°13'1420.2
2015-Jun-29 22:33N 50°00' W 002°53'2019.3
2015-Jun-29 21:32N 50°06' W 002°23'1818.8
2015-Jun-29 20:33N 50°12' W 001°57'1818.1
2015-Jun-29 19:33N 50°20' W 001°31'1817.2
2015-Jun-29 18:32N 50°30' W 001°08'1414.5
2015-Jun-29 17:33N 50°43' W 000°58'1413.6
2015-Jun-29 16:33N 50°48' W 001°17'7 4.9
2015-Jun-29 15:05N 50°54' W 001°25'0 0.0
2015-Jun-29 13:26N 50°54' W 001°25'0 0.0
2015-Jun-29 09:23N 50°54' W 001°25'0 0.0
2015-Jun-29 08:26N 50°54' W 001°25'0 0.0
2015-Jun-29 07:26N 50°54' W 001°25'0 0.0
2015-Jun-29 06:20N 50°54' W 001°25'0 0.0
2015-Jun-29 05:32N 50°54' W 001°25'0 0.0
2015-Jun-29 04:16N 50°54' W 001°25'5 6.6
2015-Jun-29 03:31N 50°50' W 001°19'1010.2
2015-Jun-29 02:34N 50°45' W 001°07'1312.9
2015-Jun-29 01:33N 50°32' W 001°01'3415.3
2015-Jun-28 23:20N 50°06' W 001°34'1615.9
2015-Jun-28 22:20N 50°01' W 001°58'1316.3
2015-Jun-28 21:33N 49°58' W 002°17'1515.3
2015-Jun-28 20:33N 49°53' W 002°39'1615.6
2015-Jun-28 19:33N 49°47' W 003°01'  
Track history (hours):
 
Tides and Currents Weather Stations Pressure Air Temp Water Temp Dewpoint Dewpoint Depression Visibility Wind Speed Wind Dir Waves Ship Positions

Explorer Of The Seas

Operator: Royal Caribbean Cruises Ltd

Last reported at 2015-Jul-07 12:32 UTC. Time now 2015-Jul-07 13:07 UTC.
Position N 39°33' E 002°38'.

Length 311 m; draft 9 m.

Type: Ship. MMSI: 311316000.

Date/timePositionNaut miles runAvg speedWind from/ knotsBaromVisibWave heightAir tempDewpointWater temp
2015-Jul-07 12:32N 39°33' E 002°38'0 0.0
2015-Jul-07 11:32N 39°33' E 002°38'0 0.0
2015-Jul-07 10:33N 39°33' E 002°38'8 7.7
2015-Jul-07 09:33N 39°26' E 002°33'1313.1
2015-Jul-07 08:33N 39°31' E 002°17'1313.1
2015-Jul-07 07:33N 39°44' E 002°22'1514.6
2015-Jul-07 06:33N 39°55' E 002°35'1514.7
2015-Jul-07 05:33N 40°06' E 002°48'1514.6
2015-Jul-07 04:33N 40°17' E 002°59'1514.8
2015-Jul-07 03:33N 40°29' E 003°12'1514.9
2015-Jul-07 02:33N 40°40' E 003°24'1514.7
2015-Jul-07 01:33N 40°53' E 003°34'1514.9
2015-Jul-07 00:33N 41°05' E 003°46'1716.8
2015-Jul-06 23:31N 41°18' E 004°01'1717.3
2015-Jul-06 22:32N 41°31' E 004°15'1717.3
2015-Jul-06 21:33N 41°45' E 004°28'1717.5
2015-Jul-06 20:33N 41°59' E 004°43'1817.6
2015-Jul-06 19:33N 42°13' E 004°58'1717.6
2015-Jul-06 18:33N 42°26' E 005°12'1817.7
2015-Jul-06 17:33N 42°41' E 005°27'1817.6
2015-Jul-06 16:34N 42°52' E 005°45'1615.8
2015-Jul-06 15:33N 43°05' E 005°57'3 2.9
2015-Jul-06 14:33N 43°06' E 005°54'0 0.0
2015-Jul-06 13:33N 43°06' E 005°54'0 0.0
2015-Jul-06 12:33N 43°06' E 005°54'0 0.0
2015-Jul-06 11:33N 43°06' E 005°54'0 0.0
2015-Jul-06 10:33N 43°06' E 005°54'0 0.0
2015-Jul-06 09:33N 43°06' E 005°54'0 0.0
2015-Jul-06 08:33N 43°06' E 005°54'0 0.0
2015-Jul-06 07:33N 43°06' E 005°54'0 0.0
2015-Jul-06 06:33N 43°06' E 005°54'0 0.0
2015-Jul-06 05:33N 43°06' E 005°54'0 0.1
2015-Jul-06 04:33N 43°06' E 005°54'12 8.2
2015-Jul-06 03:07N 42°59' E 006°06'5 9.5
2015-Jul-06 02:33N 42°56' E 006°13'1310.2
2015-Jul-06 01:19N 42°56' E 006°30'910.2
2015-Jul-06 00:26N 42°56' E 006°42'9 9.3
2015-Jul-05 23:27N 42°60' E 006°53'9 9.7
2015-Jul-05 22:33N 43°06' E 007°02'9 9.5
2015-Jul-05 21:33N 43°12' E 007°11'10 9.4
2015-Jul-05 20:27N 43°21' E 007°20'8 8.9
2015-Jul-05 19:33N 43°29' E 007°21'9 9.5
2015-Jul-05 18:33N 43°38' E 007°19'3 2.8
2015-Jul-05 17:22N 43°41' E 007°19'0 0.0
2015-Jul-05 16:31N 43°41' E 007°19'0 0.0
2015-Jul-05 15:31N 43°41' E 007°19'0 0.0
2015-Jul-05 14:28N 43°41' E 007°19'0 0.0
2015-Jul-05 13:31N 43°41' E 007°19'0 0.0
2015-Jul-05 12:28N 43°41' E 007°19'0 0.0
2015-Jul-05 11:31N 43°41' E 007°19'0 0.0
2015-Jul-05 10:25N 43°41' E 007°19'0 0.0
2015-Jul-05 09:28N 43°41' E 007°19'0 0.0
2015-Jul-05 07:25N 43°41' E 007°19'0 0.0
2015-Jul-05 06:33N 43°41' E 007°19'10 9.9
2015-Jul-05 05:33N 43°32' E 007°16'1818.2
2015-Jul-05 04:32N 43°14' E 007°08'1818.3
2015-Jul-05 03:33N 42°60' E 006°54'1818.0
2015-Jul-05 02:33N 42°47' E 006°36'1818.2
2015-Jul-05 01:33N 42°35' E 006°18'1818.3
2015-Jul-05 00:33N 42°23' E 005°59'1818.3
2015-Jul-04 23:34N 42°11' E 005°41'1818.2
2015-Jul-04 22:33N 41°59' E 005°22'1818.3
2015-Jul-04 21:33N 41°47' E 005°04'1818.2
2015-Jul-04 20:33N 41°35' E 004°45'1818.1
2015-Jul-04 19:33N 41°23' E 004°28'2018.2
2015-Jul-04 18:28N 41°09' E 004°08'1718.2
2015-Jul-04 17:33N 40°58' E 003°51'1918.4
2015-Jul-04 16:32N 40°46' E 003°32'1919.4
2015-Jul-04 15:33N 40°34' E 003°14'1919.4
2015-Jul-04 14:33N 40°21' E 002°55'1919.3
2015-Jul-04 13:33N 40°08' E 002°36'1919.2
2015-Jul-04 12:33N 39°55' E 002°18'3819.0
2015-Jul-04 10:33N 39°30' E 001°40'2118.7
2015-Jul-04 09:27N 39°16' E 001°21'1819.0
2015-Jul-04 08:30N 39°01' E 001°07'2418.8
2015-Jul-04 07:13N 38°43' E 000°47'1419.0
2015-Jul-04 06:28N 38°31' E 000°36'1718.3
2015-Jul-04 05:33N 38°18' E 000°23'1818.5
2015-Jul-04 04:34N 38°03' E 000°10'1918.6
2015-Jul-04 03:33N 37°48' W 000°04'1918.5
2015-Jul-04 02:33N 37°33' W 000°19'1818.3
2015-Jul-04 01:33N 37°22' W 000°36'1918.4
2015-Jul-04 00:33N 37°10' W 000°55'1818.4
2015-Jul-03 23:33N 36°59' W 001°13'1918.5
2015-Jul-03 22:30N 36°46' W 001°31'1918.4
2015-Jul-03 21:30N 36°35' W 001°49'1818.6
2015-Jul-03 20:31N 36°23' W 002°07'1818.2
2015-Jul-03 19:33N 36°23' W 002°29'2018.8
2015-Jul-03 18:31N 36°26' W 002°53'120 5.0
2015-Jul-02 18:33N 36°05' W 005°20'5 3.1
2015-Jul-02 17:04N 36°09' W 005°22'0 0.0
2015-Jul-02 16:28N 36°09' W 005°22'5 0.8
2015-Jul-02 10:07N 36°04' W 005°22'10317.1
2015-Jul-02 04:07N 36°08' W 007°30'1318.8
2015-Jul-02 03:26N 36°11' W 007°45'3818.6
2015-Jul-02 01:23N 36°22' W 008°31'1618.7
2015-Jul-02 00:32N 36°27' W 008°49'2319.0
2015-Jul-01 23:18N 36°33' W 009°17'1919.0
2015-Jul-01 22:19N 36°46' W 009°34'1519.2
2015-Jul-01 21:33N 37°00' W 009°38'1919.1
2015-Jul-01 20:33N 37°19' W 009°43'1919.2
2015-Jul-01 19:33N 37°38' W 009°49'1919.2
2015-Jul-01 18:33N 37°56' W 009°54'1919.2
2015-Jul-01 17:33N 38°15' W 009°59'1918.9
2015-Jul-01 16:33N 38°34' W 010°04'1918.9
2015-Jul-01 15:33N 38°53' W 010°05'1919.0
2015-Jul-01 14:33N 39°12' W 010°05'70718.0
2015-Jun-29 23:15N 49°54' W 003°13'1420.2
2015-Jun-29 22:33N 50°00' W 002°53'2019.3
2015-Jun-29 21:32N 50°06' W 002°23'1818.8
2015-Jun-29 20:33N 50°12' W 001°57'1818.1
2015-Jun-29 19:33N 50°20' W 001°31'1817.2
2015-Jun-29 18:32N 50°30' W 001°08'1414.5
2015-Jun-29 17:33N 50°43' W 000°58'1413.6
2015-Jun-29 16:33N 50°48' W 001°17'7 4.9
2015-Jun-29 15:05N 50°54' W 001°25'0 0.0
2015-Jun-29 13:26N 50°54' W 001°25'0 0.0
2015-Jun-29 09:23N 50°54' W 001°25'0 0.0
2015-Jun-29 08:26N 50°54' W 001°25'0 0.0
2015-Jun-29 07:26N 50°54' W 001°25'0 0.0
2015-Jun-29 06:20N 50°54' W 001°25'0 0.0
2015-Jun-29 05:32N 50°54' W 001°25'0 0.0
2015-Jun-29 04:16N 50°54' W 001°25'5 6.6
2015-Jun-29 03:31N 50°50' W 001°19'1010.2
2015-Jun-29 02:34N 50°45' W 001°07'1312.9
2015-Jun-29 01:33N 50°32' W 001°01'3415.3
2015-Jun-28 23:20N 50°06' W 001°34'1615.9
2015-Jun-28 22:20N 50°01' W 001°58'1316.3
2015-Jun-28 21:33N 49°58' W 002°17'1515.3
2015-Jun-28 20:33N 49°53' W 002°39'1615.6
2015-Jun-28 19:33N 49°47' W 003°01'  

Dump ship's entire track history